Time;durP1;ratioP1;P1;durP2;ratioP2;P2;SDS_P1;SDS_P2;PMS_P1;PMS_P2;Temp;Humidity;BMP_temperature;BMP_pressure;BME280_temperature;BME280_humidity;BME280_pressure;Samples;Min_cycle;Max_cycle;Signal;HPM_P1;HPM_P2
2021/07/20 00:02:09;;;;;;;22.00;14.05;;;19.20;77.30;;;;;;6197750;28;20124;-75
2021/07/20 00:05:13;;;;;;;21.67;13.63;;;19.10;77.90;;;;;;6221101;28;20053;-76
2021/07/20 00:08:16;;;;;;;16.88;12.50;;;19.00;78.40;;;;;;6226540;28;20053;-76
2021/07/20 00:11:18;;;;;;;19.38;13.50;;;18.90;78.80;;;;;;6226917;28;20046;-76
2021/07/20 00:14:20;;;;;;;18.60;14.75;;;18.80;79.10;;;;;;6226881;28;20201;-76
2021/07/20 00:17:23;;;;;;;20.15;13.98;;;18.80;79.60;;;;;;6226803;28;20137;-76
2021/07/20 00:20:27;;;;;;;19.95;13.43;;;18.70;80.20;;;;;;6226431;28;20504;-75
2021/07/20 00:23:31;;;;;;;22.73;14.65;;;18.60;80.90;;;;;;6226571;28;20046;-76
2021/07/20 00:26:33;;;;;;;21.25;15.75;;;18.60;80.90;;;;;;6225806;28;20516;-76
2021/07/20 00:29:35;;;;;;;20.92;12.30;;;18.50;81.30;;;;;;6226736;28;20519;-75
2021/07/20 00:32:38;;;;;;;19.45;13.48;;;18.40;81.70;;;;;;6226284;28;20042;-76
2021/07/20 00:35:40;;;;;;;22.95;14.00;;;18.30;82.70;;;;;;6225695;28;20057;-76
2021/07/20 00:38:43;;;;;;;21.88;14.68;;;18.20;83.50;;;;;;6226322;28;20081;-76
2021/07/20 00:41:45;;;;;;;26.75;13.95;;;18.20;84.90;;;;;;6226295;28;20056;-76
2021/07/20 00:44:47;;;;;;;18.15;13.85;;;18.10;85.10;;;;;;6225791;28;20073;-76
2021/07/20 00:47:49;;;;;;;23.95;15.88;;;18.10;86.00;;;;;;6225458;28;20100;-76
2021/07/20 00:50:51;;;;;;;19.83;15.23;;;18.00;86.80;;;;;;6226019;28;20050;-76
2021/07/20 00:53:54;;;;;;;23.25;15.20;;;18.00;87.70;;;;;;6226379;28;20049;-76
2021/07/20 00:56:57;;;;;;;20.48;15.05;;;17.90;88.20;;;;;;6225401;28;20172;-76
2021/07/20 00:59:59;;;;;;;20.10;14.77;;;17.80;89.10;;;;;;6225561;28;20054;-76
2021/07/20 01:03:01;;;;;;;18.63;13.05;;;17.70;90.00;;;;;;6225395;28;20076;-76
2021/07/20 01:06:04;;;;;;;21.67;15.27;;;17.60;90.60;;;;;;6225926;28;20050;-76
2021/07/20 01:09:08;;;;;;;18.73;14.57;;;17.50;91.10;;;;;;6225883;28;20053;-76
2021/07/20 01:12:10;;;;;;;18.20;14.77;;;17.50;91.60;;;;;;6225204;28;20057;-76
2021/07/20 01:15:14;;;;;;;20.60;14.05;;;17.40;92.10;;;;;;6225217;28;20053;-76
2021/07/20 01:18:17;;;;;;;21.95;14.38;;;17.40;92.60;;;;;;6224647;28;20501;-76
2021/07/20 01:21:20;;;;;;;19.33;16.00;;;17.30;93.10;;;;;;6225853;28;20080;-76
2021/07/20 01:24:24;;;;;;;17.50;14.20;;;17.30;93.40;;;;;;6224871;28;20136;-76
2021/07/20 01:27:26;;;;;;;18.27;14.18;;;17.20;93.80;;;;;;6224696;28;20619;-76
2021/07/20 01:30:30;;;;;;;25.52;15.73;;;17.20;94.10;;;;;;6224801;28;20626;-76
2021/07/20 01:33:35;;;;;;;22.77;14.02;;;17.20;94.40;;;;;;6225595;28;20196;-76
2021/07/20 01:36:38;;;;;;;21.38;14.55;;;17.10;94.60;;;;;;6224420;28;20175;-76
2021/07/20 01:39:43;;;;;;;18.38;14.45;;;17.10;94.90;;;;;;6224659;28;20408;-76
2021/07/20 01:42:46;;;;;;;20.30;15.45;;;17.10;95.10;;;;;;6224572;28;20053;-76
2021/07/20 01:45:49;;;;;;;20.52;15.82;;;17.00;95.40;;;;;;6224426;28;20638;-75
2021/07/20 01:48:51;;;;;;;18.20;14.40;;;17.00;95.50;;;;;;6224415;28;20077;-76
2021/07/20 01:51:54;;;;;;;20.08;13.98;;;16.90;95.90;;;;;;6224377;28;20396;-76
2021/07/20 01:54:57;;;;;;;23.38;14.30;;;16.80;96.30;;;;;;6224072;28;20140;-75
2021/07/20 01:58:00;;;;;;;22.30;14.27;;;16.70;96.70;;;;;;6224733;28;20054;-75
2021/07/20 02:01:02;;;;;;;24.10;15.55;;;16.70;96.90;;;;;;6224173;28;20100;-76
2021/07/20 02:04:22;;;;;;;20.13;14.68;;;16.70;97.30;;;;;;6223912;28;20200;-75
2021/07/20 02:10:46;;;;;;;20.17;14.55;;;16.60;97.80;;;;;;6224049;28;20049;-76
2021/07/20 02:13:53;;;;;;;19.20;14.40;;;16.50;97.80;;;;;;6224539;28;20195;-76
2021/07/20 02:16:57;;;;;;;19.42;15.20;;;16.50;98.10;;;;;;6237877;23;20057;-75
2021/07/20 02:20:02;;;;;;;20.55;13.55;;;16.50;98.20;;;;;;6224031;28;20521;-76
2021/07/20 02:23:05;;;;;;;19.20;14.30;;;16.50;98.40;;;;;;6224047;28;20050;-76
2021/07/20 02:26:09;;;;;;;26.42;15.30;;;16.40;98.50;;;;;;6223138;28;20494;-75
2021/07/20 02:29:14;;;;;;;24.30;14.55;;;16.40;98.70;;;;;;6224149;28;20049;-75
2021/07/20 02:32:17;;;;;;;22.40;16.23;;;16.30;98.90;;;;;;6223837;28;20050;-75
2021/07/20 02:35:22;;;;;;;22.38;13.45;;;16.30;99.00;;;;;;6223530;28;20525;-75
2021/07/20 02:38:25;;;;;;;20.65;15.02;;;16.20;99.30;;;;;;6223584;28;20136;-75
2021/07/20 02:41:29;;;;;;;24.25;15.93;;;16.10;99.50;;;;;;6224381;28;20092;-75
2021/07/20 02:44:32;;;;;;;21.48;14.18;;;16.20;99.70;;;;;;6223607;28;20400;-75
2021/07/20 02:47:35;;;;;;;19.35;15.07;;;16.10;99.70;;;;;;6223005;28;20088;-75
2021/07/20 02:50:37;;;;;;;22.52;14.68;;;16.10;99.70;;;;;;6223464;28;20045;-75
2021/07/20 02:53:42;;;;;;;20.13;14.65;;;16.10;99.60;;;;;;6223417;28;20605;-75
2021/07/20 02:56:46;;;;;;;22.75;15.38;;;16.00;99.70;;;;;;6222930;28;20049;-76
2021/07/20 02:59:49;;;;;;;17.35;14.43;;;16.00;99.90;;;;;;6223181;28;20129;-75
2021/07/20 03:02:51;;;;;;;22.80;16.50;;;16.00;99.90;;;;;;6223329;28;20080;-75
2021/07/20 03:05:55;;;;;;;18.98;14.40;;;15.90;99.90;;;;;;6223443;28;20077;-76
2021/07/20 03:08:59;;;;;;;17.90;13.57;;;15.90;99.90;;;;;;6223042;28;20072;-76
2021/07/20 03:12:07;;;;;;;20.88;15.13;;;15.80;99.90;;;;;;6223071;28;20054;-76
2021/07/20 03:15:10;;;;;;;19.33;14.65;;;15.80;99.90;;;;;;6222759;28;20563;-75
2021/07/20 03:18:13;;;;;;;24.85;14.88;;;15.70;99.90;;;;;;6222534;28;20559;-75
2021/07/20 03:21:16;;;;;;;20.17;15.15;;;15.80;99.90;;;;;;6223169;28;20496;-76
2021/07/20 03:24:19;;;;;;;17.30;13.93;;;15.60;99.90;;;;;;6222575;28;20141;-75
2021/07/20 03:27:23;;;;;;;22.25;14.70;;;15.60;99.90;;;;;;6222092;28;20195;-75
2021/07/20 03:30:27;;;;;;;17.15;14.52;;;15.60;99.90;;;;;;6222816;28;20088;-76
2021/07/20 03:33:31;;;;;;;21.35;14.98;;;15.50;99.90;;;;;;6222834;28;20388;-76
2021/07/20 03:36:33;;;;;;;21.00;16.65;;;15.50;99.90;;;;;;6222336;28;20049;-76
2021/07/20 03:39:37;;;;;;;19.60;14.48;;;15.50;99.90;;;;;;6221630;28;20057;-76
2021/07/20 03:42:41;;;;;;;22.10;15.43;;;15.40;99.90;;;;;;6222433;28;20522;-76
2021/07/20 03:45:43;;;;;;;20.00;14.75;;;15.40;99.90;;;;;;6222462;28;20042;-76
2021/07/20 03:48:45;;;;;;;21.23;14.05;;;15.40;99.90;;;;;;6222264;28;20525;-76
2021/07/20 03:51:49;;;;;;;20.70;13.73;;;15.40;99.90;;;;;;6222173;28;20419;-75
2021/07/20 03:54:51;;;;;;;21.35;13.68;;;15.60;99.90;;;;;;6222367;28;20128;-75
2021/07/20 03:57:54;;;;;;;21.00;14.70;;;15.70;99.90;;;;;;6222189;28;20084;-75
2021/07/20 04:01:00;;;;;;;20.05;14.57;;;15.70;99.90;;;;;;6222093;28;20070;-76
2021/07/20 04:04:03;;;;;;;16.15;12.27;;;15.80;99.90;;;;;;6222241;28;20095;-75
2021/07/20 04:07:06;;;;;;;23.65;15.30;;;15.80;99.90;;;;;;6221464;28;20432;-75
2021/07/20 04:10:10;;;;;;;16.80;12.25;;;15.90;99.90;;;;;;6222580;28;20049;-74
2021/07/20 04:13:13;;;;;;;20.60;13.57;;;16.00;99.90;;;;;;6222304;28;20085;-75
2021/07/20 04:16:16;;;;;;;20.15;15.00;;;15.90;99.90;;;;;;6221527;28;20124;-75
2021/07/20 04:19:18;;;;;;;22.35;13.68;;;16.00;99.80;;;;;;6221921;28;20046;-75
2021/07/20 04:22:20;;;;;;;18.02;13.38;;;16.00;99.40;;;;;;6222127;28;20137;-75
2021/07/20 04:25:22;;;;;;;17.35;13.32;;;16.10;99.70;;;;;;6222492;28;20141;-76
2021/07/20 04:28:27;;;;;;;18.83;13.07;;;16.30;99.20;;;;;;6221755;28;20050;-75
2021/07/20 04:31:30;;;;;;;18.35;12.57;;;16.30;98.50;;;;;;6222133;28;20058;-75
2021/07/20 04:34:34;;;;;;;16.58;12.57;;;16.40;98.20;;;;;;6222138;28;20125;-75
2021/07/20 04:37:37;;;;;;;16.65;12.40;;;16.50;98.10;;;;;;6222370;28;20054;-75
2021/07/20 04:40:39;;;;;;;20.33;14.02;;;16.50;97.70;;;;;;6221784;28;20224;-75
2021/07/20 04:43:44;;;;;;;20.13;13.70;;;16.60;97.70;;;;;;6221592;28;20508;-75
2021/07/20 04:46:47;;;;;;;19.27;14.55;;;16.70;97.50;;;;;;6221715;28;20100;-75
2021/07/20 04:49:49;;;;;;;18.58;12.60;;;16.90;97.10;;;;;;6222926;28;20525;-75
2021/07/20 04:52:52;;;;;;;16.17;13.00;;;17.00;96.60;;;;;;6226109;28;20181;-75
2021/07/20 04:55:54;;;;;;;16.38;12.25;;;17.10;96.40;;;;;;6225900;28;20042;-75
2021/07/20 04:58:58;;;;;;;20.95;12.60;;;17.20;96.40;;;;;;6226328;28;20134;-75
2021/07/20 05:01:59;;;;;;;18.42;13.60;;;17.30;96.20;;;;;;6226679;28;20533;-76
2021/07/20 05:05:02;;;;;;;17.58;13.75;;;17.50;96.10;;;;;;6225736;28;21139;-75
2021/07/20 05:08:06;;;;;;;21.48;14.45;;;17.70;95.50;;;;;;6225609;28;20095;-76
2021/07/20 05:11:08;;;;;;;17.10;14.57;;;17.80;94.50;;;;;;6225617;28;20172;-75
2021/07/20 05:14:12;;;;;;;18.00;13.05;;;18.00;94.00;;;;;;6226182;28;20111;-75
2021/07/20 05:17:14;;;;;;;18.10;13.18;;;18.10;93.50;;;;;;6225494;28;20193;-75
2021/07/20 05:20:18;;;;;;;17.52;13.45;;;18.20;93.00;;;;;;6225600;28;20046;-76
2021/07/20 05:23:20;;;;;;;18.73;14.55;;;18.40;92.40;;;;;;6225434;28;20529;-75
2021/07/20 05:26:23;;;;;;;24.25;13.38;;;18.50;91.80;;;;;;6225177;28;20103;-75
2021/07/20 05:29:27;;;;;;;16.08;12.07;;;18.70;91.30;;;;;;6225639;28;20533;-75
2021/07/20 05:32:31;;;;;;;14.10;12.20;;;18.80;89.50;;;;;;6225430;28;20579;-76
2021/07/20 05:35:34;;;;;;;17.40;13.20;;;19.00;89.50;;;;;;6225253;28;20397;-76
2021/07/20 05:38:36;;;;;;;18.55;12.10;;;19.20;87.70;;;;;;6225085;28;20439;-76
2021/07/20 05:41:38;;;;;;;23.40;12.80;;;19.20;85.10;;;;;;6225689;28;20046;-75
2021/07/20 05:44:42;;;;;;;22.00;12.35;;;19.30;84.20;;;;;;6224868;28;20042;-75
2021/07/20 05:47:46;;;;;;;18.42;12.15;;;19.40;83.60;;;;;;6224804;28;20046;-76
2021/07/20 05:50:51;;;;;;;17.95;12.43;;;19.50;83.20;;;;;;6224875;28;20886;-76
2021/07/20 05:53:54;;;;;;;15.20;11.13;;;19.70;82.30;;;;;;6225534;28;20050;-76
2021/07/20 05:56:58;;;;;;;19.02;12.50;;;19.80;80.30;;;;;;6224293;28;20511;-76
2021/07/20 06:00:01;;;;;;;17.10;12.73;;;20.00;79.60;;;;;;6224972;28;20111;-76
2021/07/20 06:03:05;;;;;;;15.93;12.55;;;20.20;79.50;;;;;;6221907;28;20129;-76
2021/07/20 06:06:06;;;;;;;15.90;12.02;;;20.40;78.60;;;;;;6216214;28;20262;-76
2021/07/20 06:09:08;;;;;;;23.45;13.10;;;20.60;77.50;;;;;;6224672;28;20099;-76
2021/07/20 06:12:13;;;;;;;14.82;12.07;;;20.90;75.90;;;;;;6224572;28;20419;-76
2021/07/20 06:15:17;;;;;;;17.15;11.70;;;21.10;74.30;;;;;;6223962;28;20554;-76
2021/07/20 06:18:19;;;;;;;16.90;10.93;;;21.30;73.30;;;;;;6224169;28;20050;-76
2021/07/20 06:21:23;;;;;;;15.57;11.13;;;21.50;72.20;;;;;;6224559;28;20185;-76
2021/07/20 06:24:26;;;;;;;16.90;11.00;;;21.70;70.40;;;;;;6223904;28;20099;-76
2021/07/20 06:27:30;;;;;;;18.10;12.02;;;21.80;69.50;;;;;;6224167;28;20136;-76
2021/07/20 06:30:33;;;;;;;13.93;10.13;;;22.00;68.20;;;;;;6224184;28;20120;-76
2021/07/20 06:33:36;;;;;;;18.25;12.38;;;22.20;67.70;;;;;;6224983;28;20177;-76
2021/07/20 06:36:42;;;;;;;15.85;11.25;;;22.40;65.80;;;;;;6224281;28;20132;-76
2021/07/20 06:39:45;;;;;;;16.65;10.82;;;22.50;65.60;;;;;;6224952;28;20045;-76
2021/07/20 06:42:47;;;;;;;15.52;10.65;;;22.50;65.00;;;;;;6224817;28;20204;-76
2021/07/20 06:45:51;;;;;;;12.82;10.23;;;22.70;65.00;;;;;;6224861;28;20462;-77
2021/07/20 06:48:53;;;;;;;20.35;12.35;;;22.80;63.90;;;;;;6224671;28;20077;-76
2021/07/20 06:51:55;;;;;;;23.13;13.40;;;22.90;63.30;;;;;;6243274;28;20053;-77
2021/07/20 06:54:57;;;;;;;16.85;11.75;;;23.00;62.50;;;;;;6254997;28;20045;-77
2021/07/20 06:58:00;;;;;;;15.73;11.15;;;23.10;62.60;;;;;;6255577;28;20038;-76
2021/07/20 07:01:06;;;;;;;14.88;11.20;;;23.20;62.40;;;;;;6254645;28;20026;-76
2021/07/20 07:04:14;;;;;;;15.65;11.20;;;23.30;61.70;;;;;;6254706;28;20056;-77
2021/07/20 07:07:19;;;;;;;16.33;12.75;;;23.40;61.40;;;;;;6253763;28;20037;-76
2021/07/20 07:10:22;;;;;;;15.48;12.02;;;23.50;61.10;;;;;;6252613;28;20050;-76
2021/07/20 07:13:25;;;;;;;17.85;10.82;;;23.70;61.10;;;;;;6253386;28;20046;-76
2021/07/20 07:16:29;;;;;;;20.48;11.65;;;23.80;60.20;;;;;;6254172;28;20045;-76
2021/07/20 07:19:31;;;;;;;15.43;11.05;;;23.90;60.40;;;;;;6254302;28;20037;-75
2021/07/20 07:22:35;;;;;;;16.13;11.35;;;24.10;59.70;;;;;;6252200;28;20084;-75
2021/07/20 07:25:37;;;;;;;17.95;12.40;;;24.20;59.40;;;;;;6225468;28;20078;-76
2021/07/20 07:28:39;;;;;;;17.13;12.23;;;24.30;59.00;;;;;;6224248;28;20530;-76
2021/07/20 07:31:44;;;;;;;17.60;10.95;;;24.40;58.40;;;;;;6224400;28;20054;-76
2021/07/20 07:34:46;;;;;;;16.70;10.57;;;24.50;58.20;;;;;;6223530;28;20127;-76
2021/07/20 07:37:48;;;;;;;14.50;11.23;;;24.70;58.10;;;;;;6223507;28;20140;-76
2021/07/20 07:40:55;;;;;;;13.82;10.57;;;24.90;57.50;;;;;;6222645;28;20073;-76
2021/07/20 07:43:57;;;;;;;17.88;11.77;;;25.00;57.10;;;;;;6222710;28;20057;-77
2021/07/20 07:47:01;;;;;;;19.15;10.48;;;25.30;56.70;;;;;;6222143;28;20503;-76
2021/07/20 07:50:07;;;;;;;14.85;9.63;;;25.40;55.70;;;;;;6222576;28;20137;-76
2021/07/20 07:53:10;;;;;;;14.48;9.88;;;25.40;53.70;;;;;;6222890;28;20054;-77
2021/07/20 07:56:12;;;;;;;17.98;9.52;;;25.30;54.60;;;;;;6222045;28;20060;-76
2021/07/20 07:59:16;;;;;;;13.93;9.02;;;25.40;56.00;;;;;;6222493;28;20097;-76
2021/07/20 08:02:24;;;;;;;11.55;9.77;;;25.60;54.60;;;;;;6222237;28;20113;-76
2021/07/20 08:05:27;;;;;;;13.68;9.38;;;25.80;54.20;;;;;;6222940;28;20050;-77
2021/07/20 08:08:31;;;;;;;12.85;10.48;;;26.10;54.60;;;;;;6221723;28;20486;-76
2021/07/20 08:11:33;;;;;;;11.93;9.18;;;26.20;52.90;;;;;;6221769;28;20128;-76
2021/07/20 08:14:35;;;;;;;15.27;9.10;;;26.50;53.20;;;;;;6222095;28;20125;-77
2021/07/20 08:17:39;;;;;;;16.77;10.13;;;26.60;51.50;;;;;;6223716;28;20125;-77
2021/07/20 08:20:41;;;;;;;14.43;9.98;;;26.30;51.10;;;;;;6222732;28;20046;-76
2021/07/20 08:23:45;;;;;;;14.40;9.70;;;26.10;52.40;;;;;;6224027;28;20052;-77
2021/07/20 08:26:50;;;;;;;11.95;8.48;;;26.00;52.40;;;;;;6228930;28;20551;-77
2021/07/20 08:29:55;;;;;;;15.88;10.20;;;26.00;52.80;;;;;;6227243;28;20073;-75
2021/07/20 08:33:01;;;;;;;13.68;9.18;;;25.90;52.40;;;;;;6226762;28;20046;-76
2021/07/20 08:36:07;;;;;;;15.02;9.20;;;25.80;53.00;;;;;;6226194;28;20581;-76
2021/07/20 08:39:11;;;;;;;19.15;10.98;;;25.90;53.20;;;;;;6226420;28;20558;-76
2021/07/20 08:42:39;;;;;;;13.10;10.27;;;25.90;53.00;;;;;;6226447;28;20061;-76
2021/07/20 08:45:58;;;;;;;17.90;10.57;;;25.90;53.10;;;;;;6226347;28;20108;-77
2021/07/20 08:49:10;;;;;;;15.95;10.93;;;26.00;52.40;;;;;;6226634;28;20049;-77
2021/07/20 08:52:18;;;;;;;14.95;9.77;;;26.00;52.10;;;;;;6226924;28;20042;-77
2021/07/20 08:55:22;;;;;;;13.57;10.05;;;26.10;51.70;;;;;;6227699;28;20187;-77
2021/07/20 08:58:27;;;;;;;12.18;9.85;;;26.10;51.80;;;;;;6226005;28;20053;-76
2021/07/20 09:01:36;;;;;;;11.93;8.73;;;26.10;51.90;;;;;;6226826;28;20117;-76
2021/07/20 09:04:41;;;;;;;13.85;9.73;;;26.10;51.20;;;;;;6225858;28;20057;-77
2021/07/20 09:07:51;;;;;;;17.77;12.38;;;26.00;50.50;;;;;;6225893;28;20049;-77
2021/07/20 09:11:03;;;;;;;13.77;10.25;;;25.80;51.10;;;;;;6226297;28;20132;-76
2021/07/20 09:14:12;;;;;;;18.10;9.57;;;25.50;52.50;;;;;;6226248;28;20143;-76
2021/07/20 09:17:18;;;;;;;15.77;10.30;;;25.50;53.50;;;;;;6225361;28;20049;-76
2021/07/20 09:20:27;;;;;;;12.30;9.30;;;25.70;53.40;;;;;;6225768;28;20046;-75
2021/07/20 09:23:34;;;;;;;15.27;9.25;;;25.90;52.90;;;;;;6225106;28;20412;-76
2021/07/20 09:26:41;;;;;;;18.75;9.80;;;26.10;52.80;;;;;;6225402;28;20050;-77
2021/07/20 09:29:47;;;;;;;13.93;9.30;;;26.30;52.10;;;;;;6226059;28;20045;-77
2021/07/20 09:32:59;;;;;;;15.15;10.05;;;26.10;52.40;;;;;;6225496;28;20189;-76
2021/07/20 09:36:08;;;;;;;15.48;10.75;;;26.20;52.10;;;;;;6223773;28;20072;-76
2021/07/20 09:39:35;;;;;;;12.13;8.60;;;26.20;51.80;;;;;;6225090;28;20050;-77
2021/07/20 09:42:44;;;;;;;13.70;9.43;;;26.20;51.90;;;;;;6225268;28;20057;-76
2021/07/20 09:45:48;;;;;;;14.27;9.90;;;26.30;51.80;;;;;;6225264;28;20057;-75
2021/07/20 09:48:56;;;;;;;26.85;12.18;;;26.50;51.10;;;;;;6224577;28;20518;-75
2021/07/20 09:52:19;;;;;;;12.27;10.93;;;26.50;50.90;;;;;;6224983;28;20049;-76
2021/07/20 09:55:32;;;;;;;15.02;10.00;;;26.40;52.00;;;;;;6219185;28;20046;-76
2021/07/20 09:58:37;;;;;;;11.75;9.32;;;26.60;51.60;;;;;;6223991;28;20146;-75
2021/07/20 10:01:48;;;;;;;12.20;9.32;;;26.70;52.60;;;;;;6224054;28;20526;-76
2021/07/20 10:04:55;;;;;;;14.88;10.23;;;26.80;49.90;;;;;;6224123;28;20415;-76
2021/07/20 10:08:03;;;;;;;13.20;10.43;;;26.90;49.40;;;;;;6224086;28;20181;-76
2021/07/20 10:11:17;;;;;;;11.48;9.43;;;27.20;49.30;;;;;;6224277;28;20100;-76
2021/07/20 10:14:44;;;;;;;12.55;9.38;;;27.20;49.20;;;;;;6224512;28;20105;-77
2021/07/20 10:17:51;;;;;;;11.52;9.57;;;27.20;49.00;;;;;;6224255;28;20137;-77
2021/07/20 10:20:56;;;;;;;;;;;27.40;49.20;;;;;;6224734;28;20091;-76
2021/07/20 10:24:03;;;;;;;11.20;9.45;;;27.60;48.90;;;;;;6223987;28;19921;-77
2021/07/20 10:27:11;;;;;;;14.02;9.77;;;27.60;48.40;;;;;;6223661;28;20563;-76
2021/07/20 10:30:16;;;;;;;14.75;10.13;;;27.60;47.30;;;;;;6223571;28;20060;-76
2021/07/20 10:33:23;;;;;;;16.33;11.50;;;27.70;47.50;;;;;;6224250;28;20535;-75
2021/07/20 10:36:30;;;;;;;14.52;10.63;;;27.90;48.60;;;;;;6222930;28;20049;-75
2021/07/20 10:39:39;;;;;;;14.60;10.60;;;27.80;47.70;;;;;;6223954;28;20045;-76
2021/07/20 10:42:46;;;;;;;11.40;9.27;;;28.00;47.80;;;;;;6190885;28;20554;-76
2021/07/20 10:45:49;;;;;;;14.57;9.13;;;28.10;46.50;;;;;;6227219;28;20131;-77
2021/07/20 10:48:57;;;;;;;13.15;9.05;;;28.40;45.70;;;;;;6222950;28;20105;-76
2021/07/20 10:52:07;;;;;;;14.55;9.75;;;28.70;44.60;;;;;;6223679;28;20045;-77
2021/07/20 10:55:23;;;;;;;15.57;10.50;;;28.80;44.10;;;;;;6221268;28;20125;-77
2021/07/20 10:58:34;;;;;;;12.05;8.82;;;29.00;44.00;;;;;;6222915;28;21143;-76
2021/07/20 11:01:50;;;;;;;12.80;10.30;;;29.20;43.10;;;;;;6223696;28;20046;-77
2021/07/20 11:04:56;;;;;;;12.00;9.68;;;29.30;42.80;;;;;;6223026;28;20076;-77
2021/07/20 11:08:01;;;;;;;12.82;10.93;;;29.40;41.80;;;;;;6222635;28;20042;-77
2021/07/20 11:11:05;;;;;;;13.38;10.57;;;29.50;41.40;;;;;;6223042;28;20042;-77
2021/07/20 11:14:08;;;;;;;13.32;10.20;;;29.50;42.00;;;;;;6222748;28;20045;-76
2021/07/20 11:17:12;;;;;;;15.25;11.27;;;29.50;41.90;;;;;;6222889;28;20056;-76
2021/07/20 11:20:16;;;;;;;14.00;9.90;;;29.60;41.50;;;;;;6222789;28;20136;-76
2021/07/20 11:23:20;;;;;;;12.40;9.63;;;29.80;42.10;;;;;;6223258;28;20140;-77
2021/07/20 11:26:24;;;;;;;13.77;11.32;;;29.80;41.40;;;;;;6222433;28;20050;-76
2021/07/20 11:29:26;;;;;;;13.98;9.75;;;30.00;41.10;;;;;;6222916;28;20129;-77
2021/07/20 11:32:33;;;;;;;16.52;11.25;;;30.10;41.80;;;;;;6222560;28;20518;-77
2021/07/20 11:35:40;;;;;;;18.40;12.13;;;30.20;41.90;;;;;;6222335;28;20046;-76
2021/07/20 11:38:44;;;;;;;;;;;30.20;41.50;;;;;;6222595;28;20129;-77
2021/07/20 11:41:55;;;;;;;10.68;8.88;;;30.00;41.70;;;;;;6222250;28;20521;-77
2021/07/20 11:45:01;;;;;;;14.82;10.40;;;29.90;42.10;;;;;;6221947;28;20384;-76
2021/07/20 11:48:07;;;;;;;13.55;10.27;;;30.10;42.10;;;;;;6221852;28;20077;-77
2021/07/20 11:51:14;;;;;;;13.85;11.60;;;30.10;41.20;;;;;;6223312;28;20073;-77
2021/07/20 11:54:24;;;;;;;15.70;10.43;;;30.20;40.50;;;;;;6222425;28;20049;-77
2021/07/20 11:58:07;;;;;;;14.13;10.13;;;30.20;41.10;;;;;;6220022;28;20103;-77
2021/07/20 12:01:47;;;;;;;14.13;10.57;;;30.20;40.50;;;;;;6221599;28;20099;-76
2021/07/20 12:05:08;;;;;;;14.40;11.18;;;30.10;41.00;;;;;;6221700;28;20049;-76
2021/07/20 12:08:23;;;;;;;12.95;11.52;;;30.30;40.20;;;;;;6221634;28;20584;-76
2021/07/20 12:11:29;;;;;;;15.75;10.95;;;30.40;39.40;;;;;;6222265;28;20074;-76
2021/07/20 12:14:32;;;;;;;17.52;10.90;;;30.60;39.50;;;;;;6221690;28;20053;-76
2021/07/20 12:17:35;;;;;;;18.73;9.70;;;30.60;39.90;;;;;;6222075;28;20501;-76
2021/07/20 12:20:39;;;;;;;14.10;10.68;;;30.80;39.80;;;;;;6221903;28;20096;-76
2021/07/20 12:23:41;;;;;;;14.05;9.20;;;30.90;39.30;;;;;;6224880;28;20688;-76
2021/07/20 12:26:44;;;;;;;10.65;9.10;;;31.00;38.50;;;;;;6221460;28;20077;-76
2021/07/20 12:29:51;;;;;;;12.98;9.85;;;31.00;38.60;;;;;;6221831;28;20057;-77
2021/07/20 12:32:55;;;;;;;14.32;10.68;;;31.00;38.30;;;;;;6221711;28;20108;-76
2021/07/20 12:35:58;;;;;;;17.27;9.82;;;31.00;38.50;;;;;;6221193;28;20054;-77
2021/07/20 12:39:08;;;;;;;14.50;9.93;;;31.00;38.90;;;;;;6221537;28;20478;-77
2021/07/20 12:42:10;;;;;;;12.52;10.63;;;31.00;37.70;;;;;;6221651;28;20065;-76
2021/07/20 12:45:14;;;;;;;11.98;9.43;;;31.00;36.90;;;;;;6222007;28;20058;-76
2021/07/20 12:48:25;;;;;;;14.02;9.70;;;31.10;37.20;;;;;;6220889;28;20124;-77
2021/07/20 12:51:27;;;;;;;12.82;8.40;;;31.10;36.80;;;;;;6221237;28;20046;-77
2021/07/20 12:54:37;;;;;;;12.02;8.77;;;31.20;37.10;;;;;;6221586;28;20092;-77
2021/07/20 12:57:40;;;;;;;15.90;9.55;;;31.20;37.10;;;;;;6219748;28;20175;-76
2021/07/20 13:00:44;;;;;;;11.82;8.75;;;31.20;37.70;;;;;;6221431;28;20050;-76
2021/07/20 13:03:48;;;;;;;10.75;8.45;;;31.30;37.30;;;;;;6221150;28;20172;-76
2021/07/20 13:06:50;;;;;;;11.20;7.95;;;31.40;37.00;;;;;;6220911;28;20052;-76
2021/07/20 13:09:54;;;;;;;11.52;9.15;;;31.30;36.30;;;;;;6221199;28;20561;-76
2021/07/20 13:12:58;;;;;;;11.57;8.88;;;31.30;36.80;;;;;;6225030;28;20035;-76
2021/07/20 13:16:00;;;;;;;10.35;9.25;;;31.30;35.60;;;;;;6224894;28;20052;-76
2021/07/20 13:19:05;;;;;;;15.30;11.10;;;31.20;35.40;;;;;;6225057;28;20571;-76
2021/07/20 13:22:08;;;;;;;12.35;8.07;;;31.20;35.30;;;;;;6225480;28;20401;-75
2021/07/20 13:25:12;;;;;;;10.27;7.85;;;31.20;36.20;;;;;;6225476;28;20054;-76
2021/07/20 13:28:15;;;;;;;10.77;8.00;;;31.30;35.60;;;;;;6224904;28;20112;-76
2021/07/20 13:31:17;;;;;;;17.35;8.75;;;31.40;35.00;;;;;;6225033;28;20423;-76
2021/07/20 13:34:21;;;;;;;11.18;8.80;;;31.50;35.00;;;;;;6225273;28;20100;-76
2021/07/20 13:37:23;;;;;;;12.27;8.10;;;31.40;35.30;;;;;;6225011;28;20158;-76
2021/07/20 13:40:27;;;;;;;8.50;7.35;;;31.50;35.40;;;;;;6225070;28;20100;-76
2021/07/20 13:43:30;;;;;;;13.40;9.07;;;31.50;35.10;;;;;;6224774;28;20057;-76
2021/07/20 13:46:34;;;;;;;11.77;7.60;;;31.50;35.00;;;;;;6224632;28;20165;-77
2021/07/20 13:49:38;;;;;;;9.70;7.45;;;31.60;35.30;;;;;;6225246;28;20187;-76
2021/07/20 13:52:42;;;;;;;12.00;7.60;;;31.70;36.10;;;;;;6224504;28;20571;-76
2021/07/20 13:55:48;;;;;;;9.38;7.15;;;31.80;35.50;;;;;;6224646;28;20077;-76
2021/07/20 13:58:52;;;;;;;11.20;7.70;;;31.90;35.80;;;;;;6222676;28;20132;-75
2021/07/20 14:01:55;;;;;;;15.93;9.07;;;32.00;34.90;;;;;;6225563;28;20140;-76
2021/07/20 14:04:58;;;;;;;16.10;8.82;;;32.00;34.80;;;;;;6224474;28;20143;-76
2021/07/20 14:08:01;;;;;;;8.90;7.40;;;32.20;34.80;;;;;;6224152;28;20559;-76
2021/07/20 14:11:03;;;;;;;16.38;7.53;;;32.10;34.80;;;;;;6224791;28;20050;-76
2021/07/20 14:14:06;;;;;;;10.40;9.10;;;32.10;34.50;;;;;;6224709;28;20530;-76
2021/07/20 14:17:08;;;;;;;8.15;7.30;;;32.10;33.90;;;;;;6240219;23;20136;-78
2021/07/20 14:20:12;;;;;;;7.82;6.95;;;32.10;33.60;;;;;;6225739;28;20128;-77
2021/07/20 14:23:14;;;;;;;9.85;8.02;;;32.00;34.00;;;;;;6224178;28;20523;-77
2021/07/20 14:26:16;;;;;;;11.18;7.68;;;32.00;33.60;;;;;;6224138;28;20145;-77
2021/07/20 14:29:20;;;;;;;9.18;7.80;;;31.90;33.10;;;;;;6224925;28;20100;-77
2021/07/20 14:32:24;;;;;;;9.95;8.30;;;31.90;33.30;;;;;;6224690;28;20057;-77
2021/07/20 14:35:37;;;;;;;9.85;7.32;;;32.00;33.20;;;;;;6224551;28;20079;-77
2021/07/20 14:38:41;;;;;;;8.90;7.00;;;32.20;33.30;;;;;;6224626;28;20176;-77
2021/07/20 14:41:44;;;;;;;9.70;7.22;;;32.10;33.70;;;;;;6225342;28;20567;-77
2021/07/20 14:45:05;;;;;;;13.30;7.32;;;32.00;33.60;;;;;;6224167;28;20079;-77
2021/07/20 14:48:08;;;;;;;10.02;8.43;;;32.00;34.20;;;;;;6224610;28;20132;-77
2021/07/20 14:51:13;;;;;;;11.82;7.13;;;31.90;34.20;;;;;;6223880;28;20124;-77
2021/07/20 14:54:25;;;;;;;10.63;7.07;;;31.90;33.80;;;;;;6223772;28;20123;-76
2021/07/20 14:57:32;;;;;;;12.45;6.50;;;32.00;33.30;;;;;;6223533;28;20046;-77
2021/07/20 15:01:05;;;;;;;8.65;6.97;;;31.90;33.60;;;;;;6200946;28;20108;-77
2021/07/20 15:04:10;;;;;;;13.18;6.65;;;31.80;33.20;;;;;;6147519;28;20051;-76
2021/07/20 15:07:17;;;;;;;7.32;6.18;;;31.80;33.20;;;;;;6198160;28;20050;-76
2021/07/20 15:10:20;;;;;;;9.88;6.57;;;31.80;33.10;;;;;;6198507;28;20492;-76
2021/07/20 15:13:22;;;;;;;8.43;6.75;;;31.70;33.10;;;;;;6198663;28;20107;-76
2021/07/20 15:16:24;;;;;;;8.05;6.93;;;31.50;32.90;;;;;;6198106;28;20126;-76
2021/07/20 15:19:35;;;;;;;9.38;5.85;;;31.20;33.00;;;;;;6198302;28;20054;-76
2021/07/20 15:22:39;;;;;;;9.98;5.60;;;31.00;32.80;;;;;;6198647;28;20054;-76
2021/07/20 15:25:41;;;;;;;7.13;6.43;;;30.50;31.30;;;;;;6198325;28;20092;-76
2021/07/20 15:28:43;;;;;;;7.60;5.88;;;30.40;32.60;;;;;;6198047;28;20192;-76
2021/07/20 15:31:46;;;;;;;9.98;6.97;;;30.30;33.30;;;;;;6197986;28;20130;-76
2021/07/20 15:34:50;;;;;;;7.68;6.00;;;30.20;32.10;;;;;;6198423;28;20052;-77
2021/07/20 15:37:56;;;;;;;11.63;6.70;;;30.00;32.90;;;;;;6198157;28;20137;-77
2021/07/20 15:41:01;;;;;;;10.00;7.15;;;30.00;33.40;;;;;;6198023;28;20050;-77
2021/07/20 15:44:04;;;;;;;9.48;6.40;;;30.00;33.70;;;;;;6198138;28;20038;-77
2021/07/20 15:47:06;;;;;;;10.18;6.47;;;29.90;34.40;;;;;;6197340;28;20555;-76